Time;durP1;ratioP1;P1;durP2;ratioP2;P2;SDS_P1;SDS_P2;PMS_P1;PMS_P2;Temp;Humidity;BMP_temperature;BMP_pressure;BME280_temperature;BME280_humidity;BME280_pressure;Samples;Min_cycle;Max_cycle;Signal;HPM_P1;HPM_P2
2020/12/11 00:00:25;;;;;;;;;;;;;;;;;;5033056;28;19921;-44
2020/12/11 00:02:50;;;;;;;;;;;;;;;;;;5032629;28;19909;-46
2020/12/11 00:05:15;;;;;;;;;;;;;;;;;;5032883;28;19920;-48
2020/12/11 00:07:40;;;;;;;;;;;;;;;;;;5032867;28;19909;-45
2020/12/11 00:10:05;;;;;;;;;;;;;;;;;;5032466;28;20388;-47
2020/12/11 00:12:30;;;;;;;;;;;;;;;;;;5032434;28;19910;-46
2020/12/11 00:14:56;;;;;;;;;;;;;;;;;;5032798;28;19955;-46
2020/12/11 00:17:21;;;;;;;;;;;;;;;;;;5032809;28;19936;-46
2020/12/11 00:19:46;;;;;;;;;;;;;;;;;;5032380;28;19952;-47
2020/12/11 00:22:14;;;;;;;;;;;;;;;;;;5032370;28;19932;-45
2020/12/11 00:24:39;;;;;;;;;;;;;;;;;;5032596;28;20329;-45
2020/12/11 00:27:04;;;;;;;;;;;;;;;;;;5032636;28;20332;-46
2020/12/11 00:29:29;;;;;;;;;;;;;;;;;;5032511;28;20337;-45
2020/12/11 00:31:54;;;;;;;;;;;;;;;;;;5032604;28;20362;-47
2020/12/11 00:34:20;;;;;;;;;;;;;;;;;;5032245;28;20370;-47
2020/12/11 00:36:45;;;;;;;;;;;;;;;;;;5032550;28;19961;-45
2020/12/11 00:39:10;;;;;;;;;;;;;;;;;;5032460;28;19955;-47
2020/12/11 00:41:35;;;;;;;;;;;;;;;;;;5032265;28;19917;-45
2020/12/11 00:44:00;;;;;;;;;;;;;;;;;;5032064;28;19909;-47
2020/12/11 00:46:25;;;;;;;;;;;;;;;;;;5032400;28;19909;-45
2020/12/11 00:48:50;;;;;;;;;;;;;;;;;;5032230;28;19916;-47
2020/12/11 00:51:15;;;;;;;;;;;;;;;;;;5032267;28;19909;-46
2020/12/11 00:53:40;;;;;;;;;;;;;;;;;;5031813;28;20007;-46
2020/12/11 00:56:06;;;;;;;;;;;;;;;;;;5032152;28;20051;-46
2020/12/11 00:58:31;;;;;;;;;;;;;;;;;;5032167;28;20062;-46
2020/12/11 01:00:56;;;;;;;;;;;;;;;;;;5032205;28;20011;-46
2020/12/11 01:03:21;;;;;;;;;;;;;;;;;;5032044;28;20004;-46
2020/12/11 01:05:46;;;;;;;;;;;;;;;;;;5032186;28;19988;-44
2020/12/11 01:08:11;;;;;;;;;;;;;;;;;;5032191;28;20020;-45
2020/12/11 01:10:36;;;;;;;;;;;;;;;;;;5032120;28;19996;-44
2020/12/11 01:13:01;;;;;;;;;;;;;;;;;;5032306;28;19909;-46
2020/12/11 01:15:26;;;;;;;;;;;;;;;;;;5032175;28;19909;-45
2020/12/11 01:17:51;;;;;;;;;;;;;;;;;;5032122;28;20332;-47
2020/12/11 01:20:17;;;;;;;;;;;;;;;;;;5031735;28;20004;-47
2020/12/11 01:22:42;;;;;;;;;;;;;;;;;;5032938;28;20374;-45
2020/12/11 01:25:07;;;;;;;;;;;;;;;;;;5035834;28;19949;-46
2020/12/11 01:27:32;;;;;;;;;;;;;;;;;;5035778;28;19945;-45
2020/12/11 01:29:57;;;;;;;;;;;;;;;;;;5035710;28;20401;-47
2020/12/11 01:32:22;;;;;;;;;;;;;;;;;;5035608;28;19909;-44
2020/12/11 01:34:47;;;;;;;;;;;;;;;;;;5035898;28;19955;-46
2020/12/11 01:37:12;;;;;;;;;;;;;;;;;;5035677;28;19978;-46
2020/12/11 01:39:37;;;;;;;;;;;;;;;;;;5035631;28;20284;-46
2020/12/11 01:42:03;;;;;;;;;;;;;;;;;;5035175;28;20026;-45
2020/12/11 01:44:28;;;;;;;;;;;;;;;;;;5035359;28;20412;-46
2020/12/11 01:46:53;;;;;;;;;;;;;;;;;;5035416;28;19944;-46
2020/12/11 01:49:18;;;;;;;;;;;;;;;;;;5035370;28;19915;-46
2020/12/11 01:51:43;;;;;;;;;;;;;;;;;;5035279;28;20007;-48
2020/12/11 01:54:08;;;;;;;;;;;;;;;;;;5034885;28;19917;-46
2020/12/11 01:56:33;;;;;;;;;;;;;;;;;;5035237;28;19909;-46
2020/12/11 01:58:59;;;;;;;;;;;;;;;;;;5035273;28;19917;-45
2020/12/11 02:01:24;;;;;;;;;;;;;;;;;;5035099;28;19935;-46
2020/12/11 02:03:49;;;;;;;;;;;;;;;;;;5034770;28;20320;-45
2020/12/11 02:06:14;;;;;;;;;;;;;;;;;;5035156;28;20437;-46
2020/12/11 02:08:39;;;;;;;;;;;;;;;;;;5035018;28;20409;-46
2020/12/11 02:11:04;;;;;;;;;;;;;;;;;;5034969;28;20056;-46
2020/12/11 02:13:29;;;;;;;;;;;;;;;;;;5034615;28;20398;-45
2020/12/11 02:15:54;;;;;;;;;;;;;;;;;;5035022;28;19931;-46
2020/12/11 02:18:19;;;;;;;;;;;;;;;;;;5034837;28;20286;-45
2020/12/11 02:20:44;;;;;;;;;;;;;;;;;;5034574;28;20397;-46
2020/12/11 02:23:10;;;;;;;;;;;;;;;;;;5034529;28;20354;-45
2020/12/11 02:25:35;;;;;;;;;;;;;;;;;;5034695;28;19920;-45
2020/12/11 02:28:00;;;;;;;;;;;;;;;;;;5034684;28;20710;-44
2020/12/11 02:30:25;;;;;;;;;;;;;;;;;;5034606;28;20293;-45
2020/12/11 02:32:50;;;;;;;;;;;;;;;;;;5034288;28;19910;-48
2020/12/11 02:35:15;;;;;;;;;;;;;;;;;;5034318;28;19917;-46
2020/12/11 02:37:40;;;;;;;;;;;;;;;;;;5034468;28;19913;-49
2020/12/11 02:40:05;;;;;;;;;;;;;;;;;;5034460;28;19920;-45
2020/12/11 02:42:31;;;;;;;;;;;;;;;;;;5034097;28;20370;-46
2020/12/11 02:44:56;;;;;;;;;;;;;;;;;;5034373;28;19962;-45
2020/12/11 02:47:21;;;;;;;;;;;;;;;;;;5034343;28;19909;-46
2020/12/11 02:49:46;;;;;;;;;;;;;;;;;;5034300;28;19916;-46
2020/12/11 02:52:11;;;;;;;;;;;;;;;;;;5034085;28;19909;-45
2020/12/11 02:54:36;;;;;;;;;;;;;;;;;;5033990;28;20285;-45
2020/12/11 02:57:01;;;;;;;;;;;;;;;;;;5034546;28;20263;-45
2020/12/11 02:59:26;;;;;;;;;;;;;;;;;;5034135;28;20004;-45
2020/12/11 03:01:51;;;;;;;;;;;;;;;;;;5033503;28;20008;-46
2020/12/11 03:04:17;;;;;;;;;;;;;;;;;;5031433;28;19948;-46
2020/12/11 03:06:42;;;;;;;;;;;;;;;;;;5033600;28;19955;-45
2020/12/11 03:09:07;;;;;;;;;;;;;;;;;;5033860;28;19940;-48
2020/12/11 03:11:32;;;;;;;;;;;;;;;;;;5033864;28;19948;-46
2020/12/11 03:13:57;;;;;;;;;;;;;;;;;;5033511;28;19916;-48
2020/12/11 03:16:22;;;;;;;;;;;;;;;;;;5033788;28;19931;-46
2020/12/11 03:18:47;;;;;;;;;;;;;;;;;;5033861;28;19955;-45
2020/12/11 03:21:12;;;;;;;;;;;;;;;;;;5033585;28;19952;-43
2020/12/11 03:23:38;;;;;;;;;;;;;;;;;;5033415;28;19909;-46
2020/12/11 03:26:03;;;;;;;;;;;;;;;;;;5033540;28;19909;-46
2020/12/11 03:28:28;;;;;;;;;;;;;;;;;;5033456;28;19959;-47
2020/12/11 03:30:53;;;;;;;;;;;;;;;;;;5033579;28;19963;-46
2020/12/11 03:33:18;;;;;;;;;;;;;;;;;;5033090;28;20019;-46
2020/12/11 03:35:43;;;;;;;;;;;;;;;;;;5033368;28;20003;-49
2020/12/11 03:38:08;;;;;;;;;;;;;;;;;;5033817;28;20007;-47
2020/12/11 03:40:34;;;;;;;;;;;;;;;;;;5033349;28;19913;-48
2020/12/11 03:42:59;;;;;;;;;;;;;;;;;;5032910;28;19955;-46
2020/12/11 03:45:24;;;;;;;;;;;;;;;;;;5032560;28;19919;-45
2020/12/11 03:47:49;;;;;;;;;;;;;;;;;;5033201;28;19915;-46
2020/12/11 03:50:14;;;;;;;;;;;;;;;;;;5033111;28;19916;-46
2020/12/11 03:52:39;;;;;;;;;;;;;;;;;;5032793;28;19916;-44
2020/12/11 03:55:04;;;;;;;;;;;;;;;;;;5033151;28;20023;-46
2020/12/11 03:57:29;;;;;;;;;;;;;;;;;;5032875;28;19984;-44
2020/12/11 03:59:54;;;;;;;;;;;;;;;;;;5032897;28;20317;-45
2020/12/11 04:02:20;;;;;;;;;;;;;;;;;;5032723;28;19917;-45
2020/12/11 04:04:45;;;;;;;;;;;;;;;;;;5032975;28;20293;-46
2020/12/11 04:07:10;;;;;;;;;;;;;;;;;;5032915;28;19909;-45
2020/12/11 04:09:35;;;;;;;;;;;;;;;;;;5032814;28;20000;-46
2020/12/11 04:12:00;;;;;;;;;;;;;;;;;;5032528;28;20095;-45
2020/12/11 04:14:25;;;;;;;;;;;;;;;;;;5032613;28;20004;-46
2020/12/11 04:16:50;;;;;;;;;;;;;;;;;;5032657;28;20413;-49
2020/12/11 04:19:15;;;;;;;;;;;;;;;;;;5032505;28;19932;-46
2020/12/11 04:21:41;;;;;;;;;;;;;;;;;;5032508;28;20489;-45
2020/12/11 04:24:06;;;;;;;;;;;;;;;;;;5032345;28;19971;-46
2020/12/11 04:26:31;;;;;;;;;;;;;;;;;;5033051;28;20309;-46
2020/12/11 04:28:56;;;;;;;;;;;;;;;;;;5032549;28;20333;-46
2020/12/11 04:31:21;;;;;;;;;;;;;;;;;;5032590;28;19935;-46
2020/12/11 04:33:46;;;;;;;;;;;;;;;;;;5032283;28;20005;-45
2020/12/11 04:36:15;;;;;;;;;;;;;;;;;;5032508;28;19909;-45
2020/12/11 04:38:40;;;;;;;;;;;;;;;;;;5032385;28;19916;-46
2020/12/11 04:41:06;;;;;;;;;;;;;;;;;;5032273;28;19913;-44
2020/12/11 04:43:31;;;;;;;;;;;;;;;;;;5032047;28;19909;-45
2020/12/11 04:45:56;;;;;;;;;;;;;;;;;;5032630;28;19916;-46
2020/12/11 04:48:21;;;;;;;;;;;;;;;;;;5032366;28;19936;-47
2020/12/11 04:50:46;;;;;;;;;;;;;;;;;;5032358;28;19924;-47
2020/12/11 04:53:11;;;;;;;;;;;;;;;;;;5031885;28;19909;-47
2020/12/11 04:55:36;;;;;;;;;;;;;;;;;;5032195;28;20290;-46
2020/12/11 04:58:01;;;;;;;;;;;;;;;;;;5035781;28;20293;-47
2020/12/11 05:00:26;;;;;;;;;;;;;;;;;;5036270;28;20374;-46
2020/12/11 05:02:51;;;;;;;;;;;;;;;;;;5035993;28;19909;-48
2020/12/11 05:05:17;;;;;;;;;;;;;;;;;;5036254;28;19917;-46
2020/12/11 05:07:42;;;;;;;;;;;;;;;;;;5036162;28;19967;-46
2020/12/11 05:10:07;;;;;;;;;;;;;;;;;;5036157;28;19913;-46
2020/12/11 05:12:32;;;;;;;;;;;;;;;;;;5035764;28;19909;-46
2020/12/11 05:14:57;;;;;;;;;;;;;;;;;;5035978;28;19971;-46
2020/12/11 05:17:22;;;;;;;;;;;;;;;;;;5036293;28;20000;-46
2020/12/11 05:19:47;;;;;;;;;;;;;;;;;;5035476;28;19955;-45
2020/12/11 05:22:12;;;;;;;;;;;;;;;;;;5035810;28;19913;-45
2020/12/11 05:24:42;;;;;;;;;;;;;;;;;;5035810;28;19932;-45
2020/12/11 05:27:07;;;;;;;;;;;;;;;;;;5035818;28;19952;-46
2020/12/11 05:29:32;;;;;;;;;;;;;;;;;;5035802;28;19944;-47
2020/12/11 05:31:57;;;;;;;;;;;;;;;;;;5035620;28;19951;-44
2020/12/11 05:34:22;;;;;;;;;;;;;;;;;;5035589;28;19944;-46
2020/12/11 05:36:47;;;;;;;;;;;;;;;;;;5035772;28;19949;-45
2020/12/11 05:39:12;;;;;;;;;;;;;;;;;;5035690;28;19959;-46
2020/12/11 05:41:38;;;;;;;;;;;;;;;;;;5035428;28;19913;-45
2020/12/11 05:44:03;;;;;;;;;;;;;;;;;;5035268;28;20332;-46
2020/12/11 05:46:28;;;;;;;;;;;;;;;;;;5035528;28;19905;-46
2020/12/11 05:48:53;;;;;;;;;;;;;;;;;;5035408;28;19917;-46
2020/12/11 05:51:18;;;;;;;;;;;;;;;;;;5035383;28;19912;-46
2020/12/11 05:53:43;;;;;;;;;;;;;;;;;;5035262;28;19917;-47
2020/12/11 05:56:08;;;;;;;;;;;;;;;;;;5035236;28;19906;-45
2020/12/11 05:58:33;;;;;;;;;;;;;;;;;;5035504;28;19920;-46
2020/12/11 06:00:58;;;;;;;;;;;;;;;;;;5035197;28;19913;-46
2020/12/11 06:03:23;;;;;;;;;;;;;;;;;;5034999;28;19909;-45
2020/12/11 06:05:49;;;;;;;;;;;;;;;;;;5035203;28;19916;-48
2020/12/11 06:08:14;;;;;;;;;;;;;;;;;;5034347;28;20020;-45
2020/12/11 06:10:39;;;;;;;;;;;;;;;;;;5035013;28;20004;-48
2020/12/11 06:13:04;;;;;;;;;;;;;;;;;;5034636;28;20000;-45
2020/12/11 06:15:30;;;;;;;;;;;;;;;;;;5034998;28;19905;-47
2020/12/11 06:17:55;;;;;;;;;;;;;;;;;;5035044;28;19968;-46
2020/12/11 06:20:20;;;;;;;;;;;;;;;;;;5034856;28;19920;-46
2020/12/11 06:22:45;;;;;;;;;;;;;;;;;;5034459;28;19913;-48
2020/12/11 06:25:10;;;;;;;;;;;;;;;;;;5034786;28;19909;-46
2020/12/11 06:27:35;;;;;;;;;;;;;;;;;;5034701;28;19955;-46
2020/12/11 06:30:00;;;;;;;;;;;;;;;;;;5034673;28;19945;-45
2020/12/11 06:32:26;;;;;;;;;;;;;;;;;;5033766;28;19948;-48
2020/12/11 06:34:51;;;;;;;;;;;;;;;;;;5037451;28;19967;-43
2020/12/11 06:37:16;;;;;;;;;;;;;;;;;;5048915;28;19954;-45
2020/12/11 06:39:41;;;;;;;;;;;;;;;;;;5053910;28;19909;-44
2020/12/11 06:42:06;;;;;;;;;;;;;;;;;;5053126;28;20278;-45
2020/12/11 06:44:31;;;;;;;;;;;;;;;;;;5053630;28;19909;-44
2020/12/11 06:46:57;;;;;;;;;;;;;;;;;;5053754;28;20337;-44
2020/12/11 06:49:22;;;;;;;;;;;;;;;;;;5053670;28;19909;-49
2020/12/11 06:51:47;;;;;;;;;;;;;;;;;;5053489;28;19909;-44
2020/12/11 06:54:12;;;;;;;;;;;;;;;;;;5052948;28;19956;-45
2020/12/11 06:56:37;;;;;;;;;;;;;;;;;;5053713;28;19959;-45
2020/12/11 06:59:02;;;;;;;;;;;;;;;;;;5053370;28;20017;-45
2020/12/11 07:01:27;;;;;;;;;;;;;;;;;;5053285;28;19982;-43
2020/12/11 07:03:52;;;;;;;;;;;;;;;;;;5052554;28;20353;-45
2020/12/11 07:06:18;;;;;;;;;;;;;;;;;;5064808;28;20376;-43
2020/12/11 07:08:43;;;;;;;;;;;;;;;;;;5068160;28;20021;-42
2020/12/11 07:11:08;;;;;;;;;;;;;;;;;;5061596;28;19908;-43
2020/12/11 07:13:35;;;;;;;;;;;;;;;;;;5072678;28;19915;-44
2020/12/11 07:16:00;;;;;;;;;;;;;;;;;;5073056;28;20468;-44
2020/12/11 07:18:25;;;;;;;;;;;;;;;;;;5073139;28;19995;-43
2020/12/11 07:20:50;;;;;;;;;;;;;;;;;;5061581;28;19983;-46
2020/12/11 07:23:15;;;;;;;;;;;;;;;;;;5052655;28;19971;-45
2020/12/11 07:25:41;;;;;;;;;;;;;;;;;;5052787;28;19909;-45
2020/12/11 07:28:06;;;;;;;;;;;;;;;;;;5052820;28;19912;-45
2020/12/11 07:30:31;;;;;;;;;;;;;;;;;;5052745;28;20007;-45
2020/12/11 07:32:56;;;;;;;;;;;;;;;;;;5052705;28;20016;-45
2020/12/11 07:35:21;;;;;;;;;;;;;;;;;;5052612;28;19995;-44
2020/12/11 07:37:46;;;;;;;;;;;;;;;;;;5060912;28;19912;-48
2020/12/11 07:40:11;;;;;;;;;;;;;;;;;;5072527;28;20418;-43
2020/12/11 07:42:36;;;;;;;;;;;;;;;;;;5072102;28;20415;-46
2020/12/11 07:45:02;;;;;;;;;;;;;;;;;;5062940;28;19995;-44
2020/12/11 07:47:27;;;;;;;;;;;;;;;;;;5052222;28;20003;-45
2020/12/11 07:49:52;;;;;;;;;;;;;;;;;;5050443;28;20023;-44
2020/12/11 07:52:23;;;;;;;;;;;;;;;;;;5051991;28;20003;-45
2020/12/11 07:54:48;;;;;;;;;;;;;;;;;;5052121;28;20047;-43
2020/12/11 07:57:13;;;;;;;;;;;;;;;;;;5052011;28;20000;-45
2020/12/11 07:59:38;;;;;;;;;;;;;;;;;;5052402;28;20066;-44
2020/12/11 08:02:03;;;;;;;;;;;;;;;;;;5051722;28;19912;-43
2020/12/11 08:04:28;;;;;;;;;;;;;;;;;;5052013;28;19916;-43
2020/12/11 08:06:54;;;;;;;;;;;;;;;;;;5051896;28;20353;-44
2020/12/11 08:09:19;;;;;;;;;;;;;;;;;;5040285;28;20372;-47
2020/12/11 08:11:46;;;;;;;;;;;;;;;;;;5032182;28;20434;-44
2020/12/11 08:14:11;;;;;;;;;;;;;;;;;;5031444;28;19909;-44
2020/12/11 08:16:36;;;;;;;;;;;;;;;;;;5032191;28;20354;-42
2020/12/11 08:19:01;;;;;;;;;;;;;;;;;;5032175;28;20370;-43
2020/12/11 08:21:27;;;;;;;;;;;;;;;;;;5032005;28;20378;-43
2020/12/11 08:23:52;;;;;;;;;;;;;;;;;;5031755;28;19932;-44
2020/12/11 08:26:17;;;;;;;;;;;;;;;;;;5032157;28;20334;-47
2020/12/11 08:28:42;;;;;;;;;;;;;;;;;;5031906;28;20405;-44
2020/12/11 08:31:07;;;;;;;;;;;;;;;;;;5031642;28;19910;-47
2020/12/11 08:33:32;;;;;;;;;;;;;;;;;;5031697;28;19909;-46
2020/12/11 08:35:57;;;;;;;;;;;;;;;;;;5032175;28;19916;-46
2020/12/11 08:38:22;;;;;;;;;;;;;;;;;;5031809;28;20003;-44
2020/12/11 08:40:48;;;;;;;;;;;;;;;;;;5031622;28;20000;-45
2020/12/11 08:46:17;;;;;;;;;;;;;;;;;;5047704;28;19909;-43
2020/12/11 08:48:41;;;;;;;;;;;;;;;;;;5051377;28;19913;-47
2020/12/11 08:51:07;;;;;;;;;;;;;;;;;;5051779;28;19916;-43
2020/12/11 08:53:38;;;;;;;;;;;;;;;;;;5051256;28;19920;-45
2020/12/11 08:56:03;;;;;;;;;;;;;;;;;;5051690;28;19963;-48
2020/12/11 08:58:28;;;;;;;;;;;;;;;;;;5051934;28;19948;-45
2020/12/11 09:00:53;;;;;;;;;;;;;;;;;;5051531;28;19948;-46
2020/12/11 09:03:19;;;;;;;;;;;;;;;;;;5051232;28;19963;-44
2020/12/11 09:05:45;;;;;;;;;;;;;;;;;;5051444;28;19909;-42
2020/12/11 09:08:10;;;;;;;;;;;;;;;;;;5051855;28;19932;-45
2020/12/11 09:10:35;;;;;;;;;;;;;;;;;;5051637;28;19912;-45
2020/12/11 09:13:00;;;;;;;;;;;;;;;;;;5051069;28;19909;-43
2020/12/11 09:15:25;;;;;;;;;;;;;;;;;;5033227;28;19936;-45
2020/12/11 09:17:50;;;;;;;;;;;;;;;;;;5051615;28;20329;-44
2020/12/11 09:20:16;;;;;;;;;;;;;;;;;;5051109;28;19909;-48
2020/12/11 09:22:41;;;;;;;;;;;;;;;;;;5050937;28;20041;-42
2020/12/11 09:25:06;;;;;;;;;;;;;;;;;;5051456;28;19916;-46
2020/12/11 09:27:31;;;;;;;;;;;;;;;;;;5051485;28;19909;-44
2020/12/11 09:30:10;;;;;;;;;;;;;;;;;;5051368;28;19948;-43
2020/12/11 09:33:01;;;;;;;;;;;;;;;;;;5051001;28;19920;-44
2020/12/11 09:35:20;;;;;;;;;;;;;;;;;;5050407;28;20287;-45
2020/12/11 09:37:49;;;;;;;;;;;;;;;;;;5051347;28;19999;-44
2020/12/11 09:40:15;;;;;;;;;;;;;;;;;;5051333;28;19913;-44
2020/12/11 09:45:18;;;;;;;;;;;;;;;;;;5054273;28;20332;-44
2020/12/11 09:48:01;;;;;;;;;;;;;;;;;;5054820;28;20385;-45
2020/12/11 09:55:47;;;;;;;;;;;;;;;;;;5054975;28;19942;-47
2020/12/11 09:58:13;;;;;;;;;;;;;;;;;;5054786;28;19991;-46
2020/12/11 10:00:41;;;;;;;;;;;;;;;;;;5054466;28;20468;-47
2020/12/11 10:03:09;;;;;;;;;;;;;;;;;;5054816;28;19909;-47
2020/12/11 10:05:34;;;;;;;;;;;;;;;;;;5054813;28;19991;-47
2020/12/11 10:07:59;;;;;;;;;;;;;;;;;;5054410;28;19995;-46
2020/12/11 10:10:25;;;;;;;;;;;;;;;;;;5054399;28;19962;-45
2020/12/11 10:12:50;;;;;;;;;;;;;;;;;;5054091;28;19912;-45
2020/12/11 10:15:20;;;;;;;;;;;;;;;;;;5053929;28;19909;-44
2020/12/11 10:17:45;;;;;;;;;;;;;;;;;;5054227;28;19943;-45
2020/12/11 10:20:17;;;;;;;;;;;;;;;;;;5054212;28;19993;-47
2020/12/11 10:22:42;;;;;;;;;;;;;;;;;;5053840;28;19915;-46
2020/12/11 10:25:07;;;;;;;;;;;;;;;;;;5054232;28;20000;-45
2020/12/11 10:27:32;;;;;;;;;;;;;;;;;;5054102;28;20012;-44
2020/12/11 10:29:57;;;;;;;;;;;;;;;;;;5054253;28;20019;-45
2020/12/11 10:32:22;;;;;;;;;;;;;;;;;;5053915;28;20003;-44
2020/12/11 10:34:48;;;;;;;;;;;;;;;;;;5054020;28;19944;-45
2020/12/11 10:37:13;;;;;;;;;;;;;;;;;;5053745;28;19951;-46
2020/12/11 10:39:38;;;;;;;;;;;;;;;;;;5053721;28;19912;-44
2020/12/11 10:42:04;;;;;;;;;;;;;;;;;;5053841;28;19920;-45
2020/12/11 10:44:29;;;;;;;;;;;;;;;;;;5053694;28;20324;-47
2020/12/11 10:46:54;;;;;;;;;;;;;;;;;;5053859;28;19913;-45
2020/12/11 10:49:19;;;;;;;;;;;;;;;;;;5053631;28;20398;-46
2020/12/11 10:51:44;;;;;;;;;;;;;;;;;;5054024;28;20440;-44
2020/12/11 10:54:10;;;;;;;;;;;;;;;;;;5052859;28;19996;-45
2020/12/11 10:56:35;;;;;;;;;;;;;;;;;;5053415;28;20377;-47
2020/12/11 10:59:00;;;;;;;;;;;;;;;;;;5035605;28;20430;-46
2020/12/11 11:01:26;;;;;;;;;;;;;;;;;;5053762;28;20365;-45
2020/12/11 11:03:51;;;;;;;;;;;;;;;;;;5053023;28;19909;-44
2020/12/11 11:06:23;;;;;;;;;;;;;;;;;;5053341;28;19909;-44
2020/12/11 11:11:35;;;;;;;;;;;;;;;;;;5054087;28;20322;-41
2020/12/11 11:16:43;;;;;;;;;;;;;;;;;;5053192;28;19909;-45
2020/12/11 11:19:38;;;;;;;;;;;;;;;;;;5052942;28;19920;-45
2020/12/11 11:29:30;;;;;;;;;;;;;;;;;;5072212;28;19913;-46
2020/12/11 11:31:55;;;;;;;;;;;;;;;;;;5068513;28;19952;-49
2020/12/11 11:34:20;;;;;;;;;;;;;;;;;;5052584;28;19909;-43
2020/12/11 11:36:45;;;;;;;;;;;;;;;;;;5053036;28;19943;-48
2020/12/11 11:39:11;;;;;;;;;;;;;;;;;;5052758;28;19954;-44
2020/12/11 11:41:48;;;;;;;;;;;;;;;;;;5065823;28;19920;-46
2020/12/11 11:44:32;;;;;;;;;;;;;;;;;;5069309;28;19908;-45
2020/12/11 11:46:57;;;;;;;;;;;;;;;;;;5052631;28;19909;-44
2020/12/11 11:52:35;;;;;;;;;;;;;;;;;;5052767;28;19990;-46
2020/12/11 11:54:38;;;;;;;;;;;;;;;;;;5043980;28;19920;-45
2020/12/11 11:57:03;;;;;;;;;;;;;;;;;;5052514;28;19916;-45
2020/12/11 11:59:28;;;;;;;;;;;;;;;;;;5072384;28;19909;-44
2020/12/11 12:01:54;;;;;;;;;;;;;;;;;;5072380;28;19920;-45
2020/12/11 12:04:19;;;;;;;;;;;;;;;;;;5071758;28;19909;-44
2020/12/11 12:06:44;;;;;;;;;;;;;;;;;;5071552;28;19951;-46
2020/12/11 12:09:09;;;;;;;;;;;;;;;;;;5071876;28;19940;-46
2020/12/11 12:11:34;;;;;;;;;;;;;;;;;;5063204;28;19952;-48
2020/12/11 12:14:00;;;;;;;;;;;;;;;;;;5064187;28;19978;-42
2020/12/11 12:16:25;;;;;;;;;;;;;;;;;;5071670;28;19967;-44
2020/12/11 12:18:54;;;;;;;;;;;;;;;;;;5057731;28;20544;-46
2020/12/11 12:21:29;;;;;;;;;;;;;;;;;;5052107;28;19913;-41
2020/12/11 12:29:06;;;;;;;;;;;;;;;;;;5051857;28;19943;-43
2020/12/11 12:31:41;;;;;;;;;;;;;;;;;;5054440;28;19909;-46
2020/12/11 12:44:53;;;;;;;;;;;;;;;;;;5063410;28;20441;-44
2020/12/11 12:47:18;;;;;;;;;;;;;;;;;;5051732;28;19948;-45
2020/12/11 12:49:43;;;;;;;;;;;;;;;;;;5051207;28;19915;-48
2020/12/11 12:52:08;;;;;;;;;;;;;;;;;;5033752;28;19908;-48
2020/12/11 12:54:33;;;;;;;;;;;;;;;;;;5051281;28;19916;-43
2020/12/11 12:57:00;;;;;;;;;;;;;;;;;;5050856;28;20534;-45
2020/12/11 13:02:29;;;;;;;;;;;;;;;;;;5051424;28;19913;-45
2020/12/11 13:05:10;;;;;;;;;;;;;;;;;;5051495;28;19915;-45
2020/12/11 13:07:35;;;;;;;;;;;;;;;;;;5051244;28;19913;-44
2020/12/11 13:10:00;;;;;;;;;;;;;;;;;;5051456;28;19916;-41
2020/12/11 13:12:25;;;;;;;;;;;;;;;;;;5032850;28;19916;-46
2020/12/11 13:14:50;;;;;;;;;;;;;;;;;;5068492;28;19912;-42
2020/12/11 13:17:15;;;;;;;;;;;;;;;;;;5089166;22;19926;-43
2020/12/11 13:19:41;;;;;;;;;;;;;;;;;;5093329;28;19924;-42
2020/12/11 13:27:33;;;;;;;;;;;;;;;;;;5087541;28;19954;-42
2020/12/11 13:29:59;;;;;;;;;;;;;;;;;;5073478;28;19912;-42
2020/12/11 13:32:24;;;;;;;;;;;;;;;;;;5072039;28;19911;-42
2020/12/11 13:34:49;;;;;;;;;;;;;;;;;;5072752;28;20023;-41
2020/12/11 13:37:14;;;;;;;;;;;;;;;;;;5073080;28;20254;-42
2020/12/11 13:39:39;;;;;;;;;;;;;;;;;;5073207;28;20293;-44
2020/12/11 13:42:04;;;;;;;;;;;;;;;;;;5071636;28;20361;-44
2020/12/11 13:44:29;;;;;;;;;;;;;;;;;;5072351;28;20373;-44
2020/12/11 13:46:54;;;;;;;;;;;;;;;;;;5073386;28;19915;-43
2020/12/11 13:49:19;;;;;;;;;;;;;;;;;;5072252;28;19909;-44
2020/12/11 13:51:45;;;;;;;;;;;;;;;;;;5072819;28;20147;-41
2020/12/11 13:54:10;;;;;;;;;;;;;;;;;;5071720;28;19947;-41
2020/12/11 13:56:35;;;;;;;;;;;;;;;;;;5072318;28;20372;-45
2020/12/11 13:59:00;;;;;;;;;;;;;;;;;;5072470;28;19908;-44
2020/12/11 14:01:25;;;;;;;;;;;;;;;;;;5072717;28;19912;-43
2020/12/11 14:03:50;;;;;;;;;;;;;;;;;;5070960;28;19918;-41
2020/12/11 14:06:15;;;;;;;;;;;;;;;;;;5069048;28;19962;-43
2020/12/11 14:08:40;;;;;;;;;;;;;;;;;;5052552;28;19999;-43
2020/12/11 14:11:05;;;;;;;;;;;;;;;;;;5051872;28;19909;-45
2020/12/11 14:13:31;;;;;;;;;;;;;;;;;;5051334;28;19916;-42
2020/12/11 14:15:57;;;;;;;;;;;;;;;;;;5090265;28;19913;-42
2020/12/11 14:18:34;;;;;;;;;;;;;;;;;;5091555;28;19943;-45
2020/12/11 14:23:43;;;;;;;;;;;;;;;;;;5091969;28;20001;-43
2020/12/11 14:26:08;;;;;;;;;;;;;;;;;;5091807;28;19908;-48
2020/12/11 14:28:34;;;;;;;;;;;;;;;;;;5092194;28;20323;-47
2020/12/11 14:30:59;;;;;;;;;;;;;;;;;;5091470;28;19908;-44
2020/12/11 14:33:24;;;;;;;;;;;;;;;;;;5090645;28;19997;-40
2020/12/11 14:35:49;;;;;;;;;;;;;;;;;;5091997;28;20376;-44
2020/12/11 14:40:58;;;;;;;;;;;;;;;;;;5091704;28;19927;-42
2020/12/11 14:43:26;;;;;;;;;;;;;;;;;;5090573;28;19908;-44
2020/12/11 14:45:53;;;;;;;;;;;;;;;;;;5075461;28;19909;-45
2020/12/11 14:48:18;;;;;;;;;;;;;;;;;;5071266;28;20290;-43
2020/12/11 14:50:43;;;;;;;;;;;;;;;;;;5071419;28;20277;-44
2020/12/11 14:53:09;;;;;;;;;;;;;;;;;;5070610;28;20313;-44
2020/12/11 14:55:34;;;;;;;;;;;;;;;;;;5071224;28;19914;-43
2020/12/11 14:57:59;;;;;;;;;;;;;;;;;;5071416;28;20015;-39
2020/12/11 15:00:24;;;;;;;;;;;;;;;;;;5071281;28;20003;-41
2020/12/11 15:02:49;;;;;;;;;;;;;;;;;;5069943;28;20003;-40
2020/12/11 15:05:14;;;;;;;;;;;;;;;;;;5049791;28;20349;-39
2020/12/11 15:07:39;;;;;;;;;;;;;;;;;;5050925;28;20346;-40
2020/12/11 15:10:04;;;;;;;;;;;;;;;;;;5051200;28;20433;-39
2020/12/11 15:12:29;;;;;;;;;;;;;;;;;;5050168;28;19908;-39
2020/12/11 15:14:56;;;;;;;;;;;;;;;;;;5051246;28;19913;-39
2020/12/11 15:17:21;;;;;;;;;;;;;;;;;;5050836;28;19978;-42
2020/12/11 15:19:46;;;;;;;;;;;;;;;;;;5050925;28;19975;-39
2020/12/11 15:22:11;;;;;;;;;;;;;;;;;;5050292;28;20270;-41
2020/12/11 15:24:36;;;;;;;;;;;;;;;;;;5050868;28;19916;-39
2020/12/11 15:27:01;;;;;;;;;;;;;;;;;;5050206;28;19908;-39
2020/12/11 15:29:27;;;;;;;;;;;;;;;;;;5032780;28;19921;-40
2020/12/11 15:31:52;;;;;;;;;;;;;;;;;;5050902;28;19909;-41
2020/12/11 15:34:17;;;;;;;;;;;;;;;;;;5050295;28;19916;-39
2020/12/11 15:36:42;;;;;;;;;;;;;;;;;;5050463;28;20365;-40
2020/12/11 15:39:07;;;;;;;;;;;;;;;;;;5050480;28;20370;-39
2020/12/11 15:41:32;;;;;;;;;;;;;;;;;;5050201;28;19924;-41
2020/12/11 15:43:57;;;;;;;;;;;;;;;;;;5050088;28;20277;-39
2020/12/11 15:46:23;;;;;;;;;;;;;;;;;;5070552;28;20362;-40
2020/12/11 15:48:49;;;;;;;;;;;;;;;;;;5070560;28;19909;-40
2020/12/11 15:51:14;;;;;;;;;;;;;;;;;;5070491;28;19958;-42
2020/12/11 15:53:39;;;;;;;;;;;;;;;;;;5069412;28;19908;-41
2020/12/11 15:56:04;;;;;;;;;;;;;;;;;;5070104;28;19977;-41
2020/12/11 15:58:29;;;;;;;;;;;;;;;;;;5070583;28;20277;-40
2020/12/11 16:00:54;;;;;;;;;;;;;;;;;;5070014;28;20369;-39
2020/12/11 16:03:19;;;;;;;;;;;;;;;;;;5069215;28;20361;-40
2020/12/11 16:05:44;;;;;;;;;;;;;;;;;;5069884;28;20062;-40
2020/12/11 16:08:10;;;;;;;;;;;;;;;;;;5070171;28;20648;-38
2020/12/11 16:10:35;;;;;;;;;;;;;;;;;;5069824;28;20011;-41
2020/12/11 16:13:00;;;;;;;;;;;;;;;;;;5068972;28;20263;-40
2020/12/11 16:15:25;;;;;;;;;;;;;;;;;;5069957;28;19909;-40
2020/12/11 16:17:50;;;;;;;;;;;;;;;;;;5069689;28;19923;-40
2020/12/11 16:20:15;;;;;;;;;;;;;;;;;;5069671;28;19931;-40
2020/12/11 16:22:40;;;;;;;;;;;;;;;;;;5069077;28;20335;-40
2020/12/11 16:25:06;;;;;;;;;;;;;;;;;;5068865;28;19912;-40
2020/12/11 16:27:31;;;;;;;;;;;;;;;;;;5069677;28;20400;-41
2020/12/11 16:29:57;;;;;;;;;;;;;;;;;;5069877;28;19934;-40
2020/12/11 16:32:22;;;;;;;;;;;;;;;;;;5069278;28;20206;-41
2020/12/11 16:34:47;;;;;;;;;;;;;;;;;;5070095;28;19956;-40
2020/12/11 16:37:15;;;;;;;;;;;;;;;;;;5069637;28;20361;-40
2020/12/11 16:39:40;;;;;;;;;;;;;;;;;;5069484;28;20396;-40
2020/12/11 16:42:05;;;;;;;;;;;;;;;;;;5069209;28;20353;-39
2020/12/11 16:47:05;;;;;;;;;;;;;;;;;;5049507;28;19909;-40
2020/12/11 16:49:34;;;;;;;;;;;;;;;;;;5049248;28;19909;-39
2020/12/11 16:51:59;;;;;;;;;;;;;;;;;;5048628;28;19916;-42
2020/12/11 16:54:24;;;;;;;;;;;;;;;;;;5049610;28;19966;-41
2020/12/11 16:56:50;;;;;;;;;;;;;;;;;;5049395;28;19912;-41
2020/12/11 16:59:17;;;;;;;;;;;;;;;;;;5049191;28;19908;-40
2020/12/11 17:01:45;;;;;;;;;;;;;;;;;;5054809;28;19912;-40
2020/12/11 17:06:49;;;;;;;;;;;;;;;;;;5051961;28;19909;-41
2020/12/11 17:09:15;;;;;;;;;;;;;;;;;;5051842;28;20007;-39
2020/12/11 17:11:40;;;;;;;;;;;;;;;;;;5052125;28;20424;-39
2020/12/11 17:14:05;;;;;;;;;;;;;;;;;;5051178;28;20286;-39
2020/12/11 17:16:30;;;;;;;;;;;;;;;;;;5051963;28;19987;-41
2020/12/11 17:18:55;;;;;;;;;;;;;;;;;;5051738;28;19962;-40
2020/12/11 17:21:20;;;;;;;;;;;;;;;;;;5051733;28;19916;-40
2020/12/11 17:23:45;;;;;;;;;;;;;;;;;;5051044;28;20046;-39
2020/12/11 17:26:11;;;;;;;;;;;;;;;;;;5050712;28;19996;-39
2020/12/11 17:28:36;;;;;;;;;;;;;;;;;;5051904;28;19999;-40
2020/12/11 17:31:08;;;;;;;;;;;;;;;;;;5051889;28;19909;-40
2020/12/11 17:33:37;;;;;;;;;;;;;;;;;;5050960;28;19971;-40
2020/12/11 17:36:02;;;;;;;;;;;;;;;;;;5051674;28;20389;-42